sensor_id;sensor_type;location;lat;lon;timestamp;temperature;humidity
43772;HTU21D;59066;54.782;32.024;2023-10-08T00:01:30;4.89;85.87
43772;HTU21D;59066;54.782;32.024;2023-10-08T00:04:00;4.88;88.17
43772;HTU21D;59066;54.782;32.024;2023-10-08T00:06:31;4.93;87.06
43772;HTU21D;59066;54.782;32.024;2023-10-08T00:09:00;4.95;85.37
43772;HTU21D;59066;54.782;32.024;2023-10-08T00:11:37;4.96;84.37
43772;HTU21D;59066;54.782;32.024;2023-10-08T00:14:05;4.96;83.84
43772;HTU21D;59066;54.782;32.024;2023-10-08T00:16:37;4.97;84.51
43772;HTU21D;59066;54.782;32.024;2023-10-08T00:19:07;5.00;86.78
43772;HTU21D;59066;54.782;32.024;2023-10-08T00:21:36;5.02;83.01
43772;HTU21D;59066;54.782;32.024;2023-10-08T00:24:05;5.04;81.04
43772;HTU21D;59066;54.782;32.024;2023-10-08T00:26:34;5.07;81.37
43772;HTU21D;59066;54.782;32.024;2023-10-08T00:29:08;5.16;81.36
43772;HTU21D;59066;54.782;32.024;2023-10-08T00:31:49;5.13;80.85
43772;HTU21D;59066;54.782;32.024;2023-10-08T00:34:17;5.26;84.01
43772;HTU21D;59066;54.782;32.024;2023-10-08T00:36:48;5.27;80.20
43772;HTU21D;59066;54.782;32.024;2023-10-08T00:39:16;5.24;75.81
43772;HTU21D;59066;54.782;32.024;2023-10-08T00:41:51;5.33;84.82
43772;HTU21D;59066;54.782;32.024;2023-10-08T00:44:22;5.25;82.83
43772;HTU21D;59066;54.782;32.024;2023-10-08T00:46:50;5.23;80.98
43772;HTU21D;59066;54.782;32.024;2023-10-08T00:49:22;5.25;79.24
43772;HTU21D;59066;54.782;32.024;2023-10-08T00:52:11;5.23;80.66
43772;HTU21D;59066;54.782;32.024;2023-10-08T00:54:40;5.11;74.85
43772;HTU21D;59066;54.782;32.024;2023-10-08T00:57:28;5.12;81.01
43772;HTU21D;59066;54.782;32.024;2023-10-08T00:59:57;4.97;76.50
43772;HTU21D;59066;54.782;32.024;2023-10-08T01:03:12;4.90;75.74
43772;HTU21D;59066;54.782;32.024;2023-10-08T01:05:43;4.88;77.68
43772;HTU21D;59066;54.782;32.024;2023-10-08T01:08:15;4.89;80.29
43772;HTU21D;59066;54.782;32.024;2023-10-08T01:11:19;4.92;81.88
43772;HTU21D;59066;54.782;32.024;2023-10-08T01:13:51;4.79;79.05
43772;HTU21D;59066;54.782;32.024;2023-10-08T01:16:21;4.79;78.90
43772;HTU21D;59066;54.782;32.024;2023-10-08T01:18:49;4.75;79.82
43772;HTU21D;59066;54.782;32.024;2023-10-08T01:21:21;4.75;80.73
43772;HTU21D;59066;54.782;32.024;2023-10-08T01:24:15;4.69;81.81
43772;HTU21D;59066;54.782;32.024;2023-10-08T01:26:44;4.63;76.68
43772;HTU21D;59066;54.782;32.024;2023-10-08T01:29:15;4.63;77.77
43772;HTU21D;59066;54.782;32.024;2023-10-08T01:31:48;4.60;76.57
43772;HTU21D;59066;54.782;32.024;2023-10-08T01:34:16;4.58;79.42
43772;HTU21D;59066;54.782;32.024;2023-10-08T01:36:45;4.53;75.85
43772;HTU21D;59066;54.782;32.024;2023-10-08T01:39:12;4.52;78.41
43772;HTU21D;59066;54.782;32.024;2023-10-08T01:41:46;4.52;78.50
43772;HTU21D;59066;54.782;32.024;2023-10-08T01:44:14;4.58;82.12
43772;HTU21D;59066;54.782;32.024;2023-10-08T01:46:43;4.60;82.99
43772;HTU21D;59066;54.782;32.024;2023-10-08T01:49:10;4.53;81.09
43772;HTU21D;59066;54.782;32.024;2023-10-08T01:51:42;4.57;82.58
43772;HTU21D;59066;54.782;32.024;2023-10-08T01:54:14;4.58;81.77
43772;HTU21D;59066;54.782;32.024;2023-10-08T01:56:45;4.53;79.38
43772;HTU21D;59066;54.782;32.024;2023-10-08T01:59:14;4.62;81.78
43772;HTU21D;59066;54.782;32.024;2023-10-08T02:01:43;4.61;81.27
43772;HTU21D;59066;54.782;32.024;2023-10-08T02:04:12;4.47;75.65
43772;HTU21D;59066;54.782;32.024;2023-10-08T02:06:40;4.48;78.23
43772;HTU21D;59066;54.782;32.024;2023-10-08T02:09:07;4.45;76.05
43772;HTU21D;59066;54.782;32.024;2023-10-08T02:11:48;4.43;78.50
43772;HTU21D;59066;54.782;32.024;2023-10-08T02:14:20;4.50;76.38
43772;HTU21D;59066;54.782;32.024;2023-10-08T02:16:50;4.49;81.43
43772;HTU21D;59066;54.782;32.024;2023-10-08T02:19:22;4.49;79.75
43772;HTU21D;59066;54.782;32.024;2023-10-08T02:21:57;4.52;79.56
43772;HTU21D;59066;54.782;32.024;2023-10-08T02:24:25;4.54;77.81
43772;HTU21D;59066;54.782;32.024;2023-10-08T02:26:54;4.58;83.54
43772;HTU21D;59066;54.782;32.024;2023-10-08T02:29:25;4.50;81.91
43772;HTU21D;59066;54.782;32.024;2023-10-08T02:31:52;4.47;78.08
43772;HTU21D;59066;54.782;32.024;2023-10-08T02:34:21;4.46;77.95
43772;HTU21D;59066;54.782;32.024;2023-10-08T02:36:49;4.43;77.29
43772;HTU21D;59066;54.782;32.024;2023-10-08T02:39:18;4.39;74.76
43772;HTU21D;59066;54.782;32.024;2023-10-08T02:41:53;4.44;78.14
43772;HTU21D;59066;54.782;32.024;2023-10-08T02:44:23;4.44;82.94
43772;HTU21D;59066;54.782;32.024;2023-10-08T02:46:51;4.52;82.46
43772;HTU21D;59066;54.782;32.024;2023-10-08T02:49:20;4.49;77.64
43772;HTU21D;59066;54.782;32.024;2023-10-08T02:51:54;4.52;80.01
43772;HTU21D;59066;54.782;32.024;2023-10-08T02:54:22;4.46;83.32
43772;HTU21D;59066;54.782;32.024;2023-10-08T02:57:02;4.36;79.77
43772;HTU21D;59066;54.782;32.024;2023-10-08T02:59:43;4.37;83.61
43772;HTU21D;59066;54.782;32.024;2023-10-08T03:02:14;4.42;80.92
43772;HTU21D;59066;54.782;32.024;2023-10-08T03:04:52;4.46;81.15
43772;HTU21D;59066;54.782;32.024;2023-10-08T03:07:20;4.36;79.63
43772;HTU21D;59066;54.782;32.024;2023-10-08T03:10:00;4.30;76.76
43772;HTU21D;59066;54.782;32.024;2023-10-08T03:12:46;4.27;76.73
43772;HTU21D;59066;54.782;32.024;2023-10-08T03:15:14;4.39;79.97
43772;HTU21D;59066;54.782;32.024;2023-10-08T03:18:01;4.30;81.45
43772;HTU21D;59066;54.782;32.024;2023-10-08T03:20:37;4.28;80.31
43772;HTU21D;59066;54.782;32.024;2023-10-08T03:23:08;4.34;84.30
43772;HTU21D;59066;54.782;32.024;2023-10-08T03:25:53;4.26;76.82
43772;HTU21D;59066;54.782;32.024;2023-10-08T03:28:27;4.24;80.45
43772;HTU21D;59066;54.782;32.024;2023-10-08T03:30:55;4.20;80.96
43772;HTU21D;59066;54.782;32.024;2023-10-08T03:33:36;4.18;83.15
43772;HTU21D;59066;54.782;32.024;2023-10-08T03:36:06;4.16;78.55
43772;HTU21D;59066;54.782;32.024;2023-10-08T03:38:41;4.12;78.88
43772;HTU21D;59066;54.782;32.024;2023-10-08T03:41:12;4.16;83.03
43772;HTU21D;59066;54.782;32.024;2023-10-08T03:43:45;4.03;79.98
43772;HTU21D;59066;54.782;32.024;2023-10-08T03:46:32;4.10;81.61
43772;HTU21D;59066;54.782;32.024;2023-10-08T03:49:07;4.00;79.48
43772;HTU21D;59066;54.782;32.024;2023-10-08T03:51:42;3.98;78.11
43772;HTU21D;59066;54.782;32.024;2023-10-08T03:54:09;3.98;82.23
43772;HTU21D;59066;54.782;32.024;2023-10-08T03:56:37;3.93;82.05
43772;HTU21D;59066;54.782;32.024;2023-10-08T03:59:05;3.89;78.25
43772;HTU21D;59066;54.782;32.024;2023-10-08T04:01:42;3.86;79.26
43772;HTU21D;59066;54.782;32.024;2023-10-08T04:04:10;3.87;81.07
43772;HTU21D;59066;54.782;32.024;2023-10-08T04:06:42;3.86;82.68
43772;HTU21D;59066;54.782;32.024;2023-10-08T04:09:17;3.84;78.84
43772;HTU21D;59066;54.782;32.024;2023-10-08T04:11:51;3.85;77.81
43772;HTU21D;59066;54.782;32.024;2023-10-08T04:14:25;3.83;80.11
43772;HTU21D;59066;54.782;32.024;2023-10-08T04:16:54;3.85;81.44
43772;HTU21D;59066;54.782;32.024;2023-10-08T04:19:22;3.85;78.98
43772;HTU21D;59066;54.782;32.024;2023-10-08T04:21:56;3.82;77.43
43772;HTU21D;59066;54.782;32.024;2023-10-08T04:24:27;3.83;77.53
43772;HTU21D;59066;54.782;32.024;2023-10-08T04:27:04;3.89;83.76
43772;HTU21D;59066;54.782;32.024;2023-10-08T04:29:36;3.88;85.84
43772;HTU21D;59066;54.782;32.024;2023-10-08T04:32:05;3.91;82.90
43772;HTU21D;59066;54.782;32.024;2023-10-08T04:34:39;3.91;83.00
43772;HTU21D;59066;54.782;32.024;2023-10-08T04:37:12;3.92;83.35
43772;HTU21D;59066;54.782;32.024;2023-10-08T04:39:40;3.86;80.29
43772;HTU21D;59066;54.782;32.024;2023-10-08T04:42:14;3.86;81.65
43772;HTU21D;59066;54.782;32.024;2023-10-08T04:44:41;3.87;78.09
43772;HTU21D;59066;54.782;32.024;2023-10-08T04:47:09;3.89;79.29
43772;HTU21D;59066;54.782;32.024;2023-10-08T04:49:39;3.93;83.08
43772;HTU21D;59066;54.782;32.024;2023-10-08T04:52:12;3.97;82.39
43772;HTU21D;59066;54.782;32.024;2023-10-08T04:54:42;3.98;78.37
43772;HTU21D;59066;54.782;32.024;2023-10-08T04:57:19;4.07;79.05
43772;HTU21D;59066;54.782;32.024;2023-10-08T04:59:50;4.05;80.69
43772;HTU21D;59066;54.782;32.024;2023-10-08T05:02:18;4.15;80.64
43772;HTU21D;59066;54.782;32.024;2023-10-08T05:05:01;4.13;82.10
43772;HTU21D;59066;54.782;32.024;2023-10-08T05:07:50;4.20;83.13
43772;HTU21D;59066;54.782;32.024;2023-10-08T05:10:18;4.19;81.40
43772;HTU21D;59066;54.782;32.024;2023-10-08T05:12:55;4.15;78.18
43772;HTU21D;59066;54.782;32.024;2023-10-08T05:15:43;4.21;78.96
43772;HTU21D;59066;54.782;32.024;2023-10-08T05:18:29;4.18;81.52
43772;HTU21D;59066;54.782;32.024;2023-10-08T05:21:25;4.23;78.65
43772;HTU21D;59066;54.782;32.024;2023-10-08T05:23:55;4.23;80.07
43772;HTU21D;59066;54.782;32.024;2023-10-08T05:26:41;4.22;80.02
43772;HTU21D;59066;54.782;32.024;2023-10-08T05:29:11;4.23;81.33
43772;HTU21D;59066;54.782;32.024;2023-10-08T05:31:59;4.24;77.91
43772;HTU21D;59066;54.782;32.024;2023-10-08T05:34:57;4.29;80.20
43772;HTU21D;59066;54.782;32.024;2023-10-08T05:37:46;4.27;83.61
43772;HTU21D;59066;54.782;32.024;2023-10-08T05:40:19;4.33;81.97
43772;HTU21D;59066;54.782;32.024;2023-10-08T05:43:09;4.38;81.45
43772;HTU21D;59066;54.782;32.024;2023-10-08T05:45:50;4.36;76.57
43772;HTU21D;59066;54.782;32.024;2023-10-08T05:48:40;4.36;74.81
43772;HTU21D;59066;54.782;32.024;2023-10-08T05:51:12;4.39;75.84
43772;HTU21D;59066;54.782;32.024;2023-10-08T05:53:50;4.46;78.25
43772;HTU21D;59066;54.782;32.024;2023-10-08T05:56:23;4.48;82.17
43772;HTU21D;59066;54.782;32.024;2023-10-08T05:58:56;4.46;76.15
43772;HTU21D;59066;54.782;32.024;2023-10-08T06:01:49;4.46;82.51
43772;HTU21D;59066;54.782;32.024;2023-10-08T06:04:33;4.38;77.75
43772;HTU21D;59066;54.782;32.024;2023-10-08T06:07:23;4.45;76.03
43772;HTU21D;59066;54.782;32.024;2023-10-08T06:10:00;4.37;75.26
43772;HTU21D;59066;54.782;32.024;2023-10-08T06:12:41;4.39;79.59
43772;HTU21D;59066;54.782;32.024;2023-10-08T06:15:17;4.28;72.32
43772;HTU21D;59066;54.782;32.024;2023-10-08T06:17:54;4.24;71.55
43772;HTU21D;59066;54.782;32.024;2023-10-08T06:20:34;4.28;68.07
43772;HTU21D;59066;54.782;32.024;2023-10-08T06:23:02;4.24;72.33
43772;HTU21D;59066;54.782;32.024;2023-10-08T06:25:34;4.17;71.36
43772;HTU21D;59066;54.782;32.024;2023-10-08T06:28:16;4.29;72.62
43772;HTU21D;59066;54.782;32.024;2023-10-08T06:30:48;4.42;76.14
43772;HTU21D;59066;54.782;32.024;2023-10-08T06:33:16;4.34;70.06
43772;HTU21D;59066;54.782;32.024;2023-10-08T06:35:44;4.44;77.51
43772;HTU21D;59066;54.782;32.024;2023-10-08T06:38:34;4.51;78.76
43772;HTU21D;59066;54.782;32.024;2023-10-08T06:41:03;4.51;78.22
43772;HTU21D;59066;54.782;32.024;2023-10-08T06:43:38;4.62;77.02
43772;HTU21D;59066;54.782;32.024;2023-10-08T06:46:06;4.73;78.50
43772;HTU21D;59066;54.782;32.024;2023-10-08T06:48:41;4.79;78.24
43772;HTU21D;59066;54.782;32.024;2023-10-08T06:51:13;4.72;69.78
43772;HTU21D;59066;54.782;32.024;2023-10-08T06:53:44;4.61;70.27
43772;HTU21D;59066;54.782;32.024;2023-10-08T06:56:16;4.52;76.01
43772;HTU21D;59066;54.782;32.024;2023-10-08T06:58:46;4.48;71.51
43772;HTU21D;59066;54.782;32.024;2023-10-08T07:01:20;4.51;70.57
43772;HTU21D;59066;54.782;32.024;2023-10-08T07:04:06;4.56;74.52
43772;HTU21D;59066;54.782;32.024;2023-10-08T07:06:42;4.58;71.31
43772;HTU21D;59066;54.782;32.024;2023-10-08T07:09:11;4.67;67.24
43772;HTU21D;59066;54.782;32.024;2023-10-08T07:11:51;4.61;68.26
43772;HTU21D;59066;54.782;32.024;2023-10-08T07:14:26;4.64;70.04
43772;HTU21D;59066;54.782;32.024;2023-10-08T07:16:59;4.57;65.36
43772;HTU21D;59066;54.782;32.024;2023-10-08T07:19:30;4.57;70.08
43772;HTU21D;59066;54.782;32.024;2023-10-08T07:22:09;4.58;76.27
43772;HTU21D;59066;54.782;32.024;2023-10-08T07:24:50;4.64;76.43
43772;HTU21D;59066;54.782;32.024;2023-10-08T07:27:21;4.66;68.22
43772;HTU21D;59066;54.782;32.024;2023-10-08T07:29:51;4.59;70.46
43772;HTU21D;59066;54.782;32.024;2023-10-08T07:32:23;4.67;65.35
43772;HTU21D;59066;54.782;32.024;2023-10-08T07:34:53;4.73;66.35
43772;HTU21D;59066;54.782;32.024;2023-10-08T07:37:25;4.72;69.20
43772;HTU21D;59066;54.782;32.024;2023-10-08T07:39:53;4.71;64.00
43772;HTU21D;59066;54.782;32.024;2023-10-08T07:42:22;4.76;63.67
43772;HTU21D;59066;54.782;32.024;2023-10-08T07:44:50;4.77;70.31
43772;HTU21D;59066;54.782;32.024;2023-10-08T07:47:21;4.81;72.86
43772;HTU21D;59066;54.782;32.024;2023-10-08T07:49:49;4.68;65.27
43772;HTU21D;59066;54.782;32.024;2023-10-08T07:52:19;4.80;74.86
43772;HTU21D;59066;54.782;32.024;2023-10-08T07:54:48;4.78;74.60
43772;HTU21D;59066;54.782;32.024;2023-10-08T07:57:16;4.79;74.28
43772;HTU21D;59066;54.782;32.024;2023-10-08T07:59:53;4.83;74.46
43772;HTU21D;59066;54.782;32.024;2023-10-08T08:02:44;4.75;66.64
43772;HTU21D;59066;54.782;32.024;2023-10-08T08:05:12;4.79;68.10
43772;HTU21D;59066;54.782;32.024;2023-10-08T08:07:44;4.74;70.39
43772;HTU21D;59066;54.782;32.024;2023-10-08T08:10:17;4.77;73.47
43772;HTU21D;59066;54.782;32.024;2023-10-08T08:12:46;4.72;72.94
43772;HTU21D;59066;54.782;32.024;2023-10-08T08:15:13;4.69;71.75
43772;HTU21D;59066;54.782;32.024;2023-10-08T08:17:44;4.69;71.22
43772;HTU21D;59066;54.782;32.024;2023-10-08T08:20:15;4.74;76.52
43772;HTU21D;59066;54.782;32.024;2023-10-08T08:22:46;4.75;71.26
43772;HTU21D;59066;54.782;32.024;2023-10-08T08:25:22;4.79;71.73
43772;HTU21D;59066;54.782;32.024;2023-10-08T08:28:01;4.92;71.81
43772;HTU21D;59066;54.782;32.024;2023-10-08T08:30:33;4.92;64.70
43772;HTU21D;59066;54.782;32.024;2023-10-08T08:33:04;5.05;71.87
43772;HTU21D;59066;54.782;32.024;2023-10-08T08:35:38;5.09;76.31
43772;HTU21D;59066;54.782;32.024;2023-10-08T08:38:06;5.10;74.06
43772;HTU21D;59066;54.782;32.024;2023-10-08T08:40:36;5.05;70.90
43772;HTU21D;59066;54.782;32.024;2023-10-08T08:43:05;5.11;73.96
43772;HTU21D;59066;54.782;32.024;2023-10-08T08:45:35;5.12;71.13
43772;HTU21D;59066;54.782;32.024;2023-10-08T08:48:03;5.18;74.22
43772;HTU21D;59066;54.782;32.024;2023-10-08T08:50:32;5.23;74.57
43772;HTU21D;59066;54.782;32.024;2023-10-08T08:53:00;5.16;70.68
43772;HTU21D;59066;54.782;32.024;2023-10-08T08:55:32;5.09;68.72
43772;HTU21D;59066;54.782;32.024;2023-10-08T08:58:00;5.10;66.59
43772;HTU21D;59066;54.782;32.024;2023-10-08T09:00:30;5.07;71.43
43772;HTU21D;59066;54.782;32.024;2023-10-08T09:02:58;5.10;67.51
43772;HTU21D;59066;54.782;32.024;2023-10-08T09:05:26;5.20;69.31
43772;HTU21D;59066;54.782;32.024;2023-10-08T09:08:04;5.26;72.57
43772;HTU21D;59066;54.782;32.024;2023-10-08T09:10:38;5.24;69.93
43772;HTU21D;59066;54.782;32.024;2023-10-08T09:13:20;5.21;68.20
43772;HTU21D;59066;54.782;32.024;2023-10-08T09:15:49;5.33;76.79
43772;HTU21D;59066;54.782;32.024;2023-10-08T09:18:21;5.36;63.76
43772;HTU21D;59066;54.782;32.024;2023-10-08T09:20:49;5.39;71.52
43772;HTU21D;59066;54.782;32.024;2023-10-08T09:23:17;5.35;60.40
43772;HTU21D;59066;54.782;32.024;2023-10-08T09:25:49;5.36;66.70
43772;HTU21D;59066;54.782;32.024;2023-10-08T09:28:18;5.32;69.02
43772;HTU21D;59066;54.782;32.024;2023-10-08T09:30:45;5.34;70.89
43772;HTU21D;59066;54.782;32.024;2023-10-08T09:33:15;5.42;66.01
43772;HTU21D;59066;54.782;32.024;2023-10-08T09:35:46;5.38;68.25
43772;HTU21D;59066;54.782;32.024;2023-10-08T09:38:15;5.54;72.69
43772;HTU21D;59066;54.782;32.024;2023-10-08T09:40:52;5.56;69.75
43772;HTU21D;59066;54.782;32.024;2023-10-08T09:43:20;5.75;75.09
43772;HTU21D;59066;54.782;32.024;2023-10-08T09:45:55;5.90;68.00
43772;HTU21D;59066;54.782;32.024;2023-10-08T09:48:26;6.01;69.78
43772;HTU21D;59066;54.782;32.024;2023-10-08T09:50:58;6.00;74.83
43772;HTU21D;59066;54.782;32.024;2023-10-08T09:53:35;6.00;74.41
43772;HTU21D;59066;54.782;32.024;2023-10-08T09:56:13;6.11;65.96
43772;HTU21D;59066;54.782;32.024;2023-10-08T09:58:42;6.23;73.92
43772;HTU21D;59066;54.782;32.024;2023-10-08T10:01:11;6.16;70.55
43772;HTU21D;59066;54.782;32.024;2023-10-08T10:03:39;6.12;68.69
43772;HTU21D;59066;54.782;32.024;2023-10-08T10:06:14;5.96;60.24
43772;HTU21D;59066;54.782;32.024;2023-10-08T10:08:44;6.12;72.23
43772;HTU21D;59066;54.782;32.024;2023-10-08T10:11:12;6.35;73.26
43772;HTU21D;59066;54.782;32.024;2023-10-08T10:13:45;6.44;68.94
43772;HTU21D;59066;54.782;32.024;2023-10-08T10:16:21;6.83;66.16
43772;HTU21D;59066;54.782;32.024;2023-10-08T10:18:55;6.93;62.86
43772;HTU21D;59066;54.782;32.024;2023-10-08T10:21:32;6.76;64.70
43772;HTU21D;59066;54.782;32.024;2023-10-08T10:24:00;6.88;68.13
43772;HTU21D;59066;54.782;32.024;2023-10-08T10:26:35;6.78;65.66
43772;HTU21D;59066;54.782;32.024;2023-10-08T10:31:39;6.71;66.07
43772;HTU21D;59066;54.782;32.024;2023-10-08T10:34:16;6.68;65.54
43772;HTU21D;59066;54.782;32.024;2023-10-08T10:36:46;6.58;58.06
43772;HTU21D;59066;54.782;32.024;2023-10-08T10:39:18;6.55;64.12
43772;HTU21D;59066;54.782;32.024;2023-10-08T10:41:57;6.48;64.47
43772;HTU21D;59066;54.782;32.024;2023-10-08T10:44:30;6.44;63.79
43772;HTU21D;59066;54.782;32.024;2023-10-08T10:46:58;6.29;55.84
43772;HTU21D;59066;54.782;32.024;2023-10-08T10:49:49;6.33;60.33
43772;HTU21D;59066;54.782;32.024;2023-10-08T10:52:26;6.39;60.68
43772;HTU21D;59066;54.782;32.024;2023-10-08T10:55:14;6.53;62.92
43772;HTU21D;59066;54.782;32.024;2023-10-08T10:57:43;6.54;62.79
43772;HTU21D;59066;54.782;32.024;2023-10-08T11:00:11;6.53;57.63
43772;HTU21D;59066;54.782;32.024;2023-10-08T11:02:57;6.51;56.68
43772;HTU21D;59066;54.782;32.024;2023-10-08T11:05:31;6.59;54.06
43772;HTU21D;59066;54.782;32.024;2023-10-08T11:08:01;6.61;53.65
43772;HTU21D;59066;54.782;32.024;2023-10-08T11:10:37;6.51;53.57
43772;HTU21D;59066;54.782;32.024;2023-10-08T11:13:13;6.46;55.04
43772;HTU21D;59066;54.782;32.024;2023-10-08T11:15:45;6.60;52.73
43772;HTU21D;59066;54.782;32.024;2023-10-08T11:18:26;6.63;57.04
43772;HTU21D;59066;54.782;32.024;2023-10-08T11:21:08;6.59;51.01
43772;HTU21D;59066;54.782;32.024;2023-10-08T11:23:47;6.59;53.94
43772;HTU21D;59066;54.782;32.024;2023-10-08T11:26:22;6.61;52.85
43772;HTU21D;59066;54.782;32.024;2023-10-08T11:29:00;6.76;53.14
43772;HTU21D;59066;54.782;32.024;2023-10-08T11:31:28;6.88;52.22
43772;HTU21D;59066;54.782;32.024;2023-10-08T11:34:01;6.88;51.90
43772;HTU21D;59066;54.782;32.024;2023-10-08T11:36:29;6.82;49.26
43772;HTU21D;59066;54.782;32.024;2023-10-08T11:39:11;6.90;51.11
43772;HTU21D;59066;54.782;32.024;2023-10-08T11:41:58;6.91;49.35
43772;HTU21D;59066;54.782;32.024;2023-10-08T11:44:31;6.72;49.33
43772;HTU21D;59066;54.782;32.024;2023-10-08T11:47:03;6.76;50.34
43772;HTU21D;59066;54.782;32.024;2023-10-08T11:49:48;6.74;49.60
43772;HTU21D;59066;54.782;32.024;2023-10-08T11:52:21;6.75;49.85
43772;HTU21D;59066;54.782;32.024;2023-10-08T11:54:49;6.79;50.76
43772;HTU21D;59066;54.782;32.024;2023-10-08T11:57:20;6.75;49.37
43772;HTU21D;59066;54.782;32.024;2023-10-08T11:59:50;6.82;49.38
43772;HTU21D;59066;54.782;32.024;2023-10-08T12:02:22;6.94;50.84
43772;HTU21D;59066;54.782;32.024;2023-10-08T12:04:50;6.81;49.44
43772;HTU21D;59066;54.782;32.024;2023-10-08T12:07:19;6.87;50.12
43772;HTU21D;59066;54.782;32.024;2023-10-08T12:09:47;6.99;49.24
43772;HTU21D;59066;54.782;32.024;2023-10-08T12:12:16;6.87;48.83
43772;HTU21D;59066;54.782;32.024;2023-10-08T12:14:46;6.86;49.38
43772;HTU21D;59066;54.782;32.024;2023-10-08T12:17:14;6.76;49.89
43772;HTU21D;59066;54.782;32.024;2023-10-08T12:19:45;6.69;50.04
43772;HTU21D;59066;54.782;32.024;2023-10-08T12:22:13;6.70;50.40
43772;HTU21D;59066;54.782;32.024;2023-10-08T12:24:47;6.70;49.73
43772;HTU21D;59066;54.782;32.024;2023-10-08T12:27:15;6.68;49.35
43772;HTU21D;59066;54.782;32.024;2023-10-08T12:29:44;6.69;49.31
43772;HTU21D;59066;54.782;32.024;2023-10-08T12:32:12;6.75;50.03
43772;HTU21D;59066;54.782;32.024;2023-10-08T12:34:44;6.68;50.56
43772;HTU21D;59066;54.782;32.024;2023-10-08T12:37:12;6.56;51.86
43772;HTU21D;59066;54.782;32.024;2023-10-08T12:39:42;6.44;52.38
43772;HTU21D;59066;54.782;32.024;2023-10-08T12:42:28;6.35;53.79
43772;HTU21D;59066;54.782;32.024;2023-10-08T12:44:57;6.34;54.01
43772;HTU21D;59066;54.782;32.024;2023-10-08T12:47:25;6.38;54.40
43772;HTU21D;59066;54.782;32.024;2023-10-08T12:49:56;6.44;54.73
43772;HTU21D;59066;54.782;32.024;2023-10-08T12:52:25;6.55;54.78
43772;HTU21D;59066;54.782;32.024;2023-10-08T12:54:55;6.55;54.65
43772;HTU21D;59066;54.782;32.024;2023-10-08T12:57:25;6.46;55.29
43772;HTU21D;59066;54.782;32.024;2023-10-08T13:00:00;6.41;55.83
43772;HTU21D;59066;54.782;32.024;2023-10-08T13:02:28;6.33;56.15
43772;HTU21D;59066;54.782;32.024;2023-10-08T13:04:57;6.33;56.81
43772;HTU21D;59066;54.782;32.024;2023-10-08T13:07:27;6.35;56.71
43772;HTU21D;59066;54.782;32.024;2023-10-08T13:09:54;6.43;56.72
43772;HTU21D;59066;54.782;32.024;2023-10-08T13:12:22;6.49;56.65
43772;HTU21D;59066;54.782;32.024;2023-10-08T13:14:52;6.51;56.61
43772;HTU21D;59066;54.782;32.024;2023-10-08T13:17:20;6.58;56.41
43772;HTU21D;59066;54.782;32.024;2023-10-08T13:19:48;6.55;56.40
43772;HTU21D;59066;54.782;32.024;2023-10-08T13:22:15;6.57;56.26
43772;HTU21D;59066;54.782;32.024;2023-10-08T13:24:47;6.55;56.65
43772;HTU21D;59066;54.782;32.024;2023-10-08T13:27:16;6.54;56.90
43772;HTU21D;59066;54.782;32.024;2023-10-08T13:29:44;6.50;56.44
43772;HTU21D;59066;54.782;32.024;2023-10-08T13:32:11;6.46;56.18
43772;HTU21D;59066;54.782;32.024;2023-10-08T13:34:44;6.45;56.13
43772;HTU21D;59066;54.782;32.024;2023-10-08T13:37:13;6.54;56.32
43772;HTU21D;59066;54.782;32.024;2023-10-08T13:39:44;6.53;55.92
43772;HTU21D;59066;54.782;32.024;2023-10-08T13:42:11;6.49;56.23
43772;HTU21D;59066;54.782;32.024;2023-10-08T13:44:46;6.44;55.84
43772;HTU21D;59066;54.782;32.024;2023-10-08T13:47:13;6.46;55.37
43772;HTU21D;59066;54.782;32.024;2023-10-08T13:49:42;6.44;54.83
43772;HTU21D;59066;54.782;32.024;2023-10-08T13:52:10;6.37;55.36
43772;HTU21D;59066;54.782;32.024;2023-10-08T13:54:38;6.38;55.52
43772;HTU21D;59066;54.782;32.024;2023-10-08T13:57:09;6.42;55.57
43772;HTU21D;59066;54.782;32.024;2023-10-08T13:59:42;6.37;55.62
43772;HTU21D;59066;54.782;32.024;2023-10-08T14:02:10;6.37;55.94
43772;HTU21D;59066;54.782;32.024;2023-10-08T14:04:44;6.38;56.11
43772;HTU21D;59066;54.782;32.024;2023-10-08T14:07:12;6.41;55.59
43772;HTU21D;59066;54.782;32.024;2023-10-08T14:09:44;6.42;55.73
43772;HTU21D;59066;54.782;32.024;2023-10-08T14:12:13;6.43;55.32
43772;HTU21D;59066;54.782;32.024;2023-10-08T14:14:41;6.33;54.73
43772;HTU21D;59066;54.782;32.024;2023-10-08T14:17:14;6.35;55.33
43772;HTU21D;59066;54.782;32.024;2023-10-08T14:20:05;6.24;54.49
43772;HTU21D;59066;54.782;32.024;2023-10-08T14:22:40;6.31;55.42
43772;HTU21D;59066;54.782;32.024;2023-10-08T14:25:09;6.37;55.74
43772;HTU21D;59066;54.782;32.024;2023-10-08T14:27:41;6.31;56.16
43772;HTU21D;59066;54.782;32.024;2023-10-08T14:30:11;6.24;56.90
43772;HTU21D;59066;54.782;32.024;2023-10-08T14:32:42;6.17;57.46
43772;HTU21D;59066;54.782;32.024;2023-10-08T14:35:13;6.05;58.32
43772;HTU21D;59066;54.782;32.024;2023-10-08T14:38:00;5.91;58.99
43772;HTU21D;59066;54.782;32.024;2023-10-08T14:40:47;5.91;59.88
43772;HTU21D;59066;54.782;32.024;2023-10-08T14:43:33;5.81;60.36
43772;HTU21D;59066;54.782;32.024;2023-10-08T14:46:01;5.82;60.70
43772;HTU21D;59066;54.782;32.024;2023-10-08T14:48:35;5.77;61.25
43772;HTU21D;59066;54.782;32.024;2023-10-08T14:51:02;5.70;61.49
43772;HTU21D;59066;54.782;32.024;2023-10-08T14:53:31;5.65;61.84
43772;HTU21D;59066;54.782;32.024;2023-10-08T14:55:58;5.63;62.20
43772;HTU21D;59066;54.782;32.024;2023-10-08T14:58:26;5.55;62.24
43772;HTU21D;59066;54.782;32.024;2023-10-08T15:00:54;5.43;63.34
43772;HTU21D;59066;54.782;32.024;2023-10-08T15:03:22;5.40;63.53
43772;HTU21D;59066;54.782;32.024;2023-10-08T15:05:49;5.33;63.83
43772;HTU21D;59066;54.782;32.024;2023-10-08T15:08:17;5.25;64.30
43772;HTU21D;59066;54.782;32.024;2023-10-08T15:10:46;5.18;64.85
43772;HTU21D;59066;54.782;32.024;2023-10-08T15:13:14;5.12;65.33
43772;HTU21D;59066;54.782;32.024;2023-10-08T15:15:43;5.05;66.21
43772;HTU21D;59066;54.782;32.024;2023-10-08T15:18:10;5.01;65.76
43772;HTU21D;59066;54.782;32.024;2023-10-08T15:20:39;5.01;66.95
43772;HTU21D;59066;54.782;32.024;2023-10-08T15:23:08;4.89;67.70
43772;HTU21D;59066;54.782;32.024;2023-10-08T15:25:39;4.84;67.57
43772;HTU21D;59066;54.782;32.024;2023-10-08T15:28:07;4.88;68.11
43772;HTU21D;59066;54.782;32.024;2023-10-08T15:30:35;4.86;67.49
43772;HTU21D;59066;54.782;32.024;2023-10-08T15:33:03;4.88;67.63
43772;HTU21D;59066;54.782;32.024;2023-10-08T15:35:30;4.88;68.07
43772;HTU21D;59066;54.782;32.024;2023-10-08T15:37:58;4.89;68.24
43772;HTU21D;59066;54.782;32.024;2023-10-08T15:40:25;4.89;68.84
43772;HTU21D;59066;54.782;32.024;2023-10-08T15:42:54;4.91;68.70
43772;HTU21D;59066;54.782;32.024;2023-10-08T15:45:24;4.89;68.81
43772;HTU21D;59066;54.782;32.024;2023-10-08T15:47:53;4.84;68.95
43772;HTU21D;59066;54.782;32.024;2023-10-08T15:50:21;4.89;69.22
43772;HTU21D;59066;54.782;32.024;2023-10-08T15:52:53;4.87;69.51